sensor_id;sensor_type;location;lat;lon;timestamp;P1;durP1;ratioP1;P2;durP2;ratioP2
74656;SDS011;63185;45.642;13.764;2024-02-15T00:00:03;17.20;;;8.60;;
74656;SDS011;63185;45.642;13.764;2024-02-15T00:02:29;19.25;;;7.95;;
74656;SDS011;63185;45.642;13.764;2024-02-15T00:04:54;15.30;;;7.72;;
74656;SDS011;63185;45.642;13.764;2024-02-15T00:07:21;21.08;;;8.13;;
74656;SDS011;63185;45.642;13.764;2024-02-15T00:09:48;14.93;;;8.30;;
74656;SDS011;63185;45.642;13.764;2024-02-15T00:12:14;18.10;;;8.38;;
74656;SDS011;63185;45.642;13.764;2024-02-15T00:14:39;15.32;;;8.18;;
74656;SDS011;63185;45.642;13.764;2024-02-15T00:17:05;18.33;;;8.45;;
74656;SDS011;63185;45.642;13.764;2024-02-15T00:19:32;15.75;;;8.48;;
74656;SDS011;63185;45.642;13.764;2024-02-15T00:21:57;17.50;;;8.23;;
74656;SDS011;63185;45.642;13.764;2024-02-15T00:24:24;18.77;;;8.43;;
74656;SDS011;63185;45.642;13.764;2024-02-15T00:26:50;18.55;;;8.20;;
74656;SDS011;63185;45.642;13.764;2024-02-15T00:29:16;18.92;;;7.78;;
74656;SDS011;63185;45.642;13.764;2024-02-15T00:31:41;17.77;;;8.35;;
74656;SDS011;63185;45.642;13.764;2024-02-15T00:34:07;18.65;;;8.57;;
74656;SDS011;63185;45.642;13.764;2024-02-15T00:36:33;17.95;;;7.55;;
74656;SDS011;63185;45.642;13.764;2024-02-15T00:38:59;15.45;;;8.05;;
74656;SDS011;63185;45.642;13.764;2024-02-15T00:41:25;16.73;;;7.90;;
74656;SDS011;63185;45.642;13.764;2024-02-15T00:43:50;14.00;;;7.57;;
74656;SDS011;63185;45.642;13.764;2024-02-15T00:46:16;13.27;;;6.93;;
74656;SDS011;63185;45.642;13.764;2024-02-15T00:48:42;14.55;;;7.15;;
74656;SDS011;63185;45.642;13.764;2024-02-15T00:51:07;9.98;;;5.57;;
74656;SDS011;63185;45.642;13.764;2024-02-15T00:53:33;11.65;;;6.05;;
74656;SDS011;63185;45.642;13.764;2024-02-15T00:55:59;14.25;;;7.88;;
74656;SDS011;63185;45.642;13.764;2024-02-15T00:58:25;16.67;;;7.30;;
74656;SDS011;63185;45.642;13.764;2024-02-15T01:00:52;15.13;;;7.88;;
74656;SDS011;63185;45.642;13.764;2024-02-15T01:03:18;14.80;;;7.43;;
74656;SDS011;63185;45.642;13.764;2024-02-15T01:05:44;13.50;;;7.32;;
74656;SDS011;63185;45.642;13.764;2024-02-15T01:08:10;13.05;;;7.22;;
74656;SDS011;63185;45.642;13.764;2024-02-15T01:10:36;16.77;;;7.45;;
74656;SDS011;63185;45.642;13.764;2024-02-15T01:13:02;17.08;;;8.20;;
74656;SDS011;63185;45.642;13.764;2024-02-15T01:15:28;14.55;;;7.63;;
74656;SDS011;63185;45.642;13.764;2024-02-15T01:17:54;13.95;;;7.35;;
74656;SDS011;63185;45.642;13.764;2024-02-15T01:20:20;12.82;;;7.65;;
74656;SDS011;63185;45.642;13.764;2024-02-15T01:22:46;15.10;;;6.35;;
74656;SDS011;63185;45.642;13.764;2024-02-15T01:25:12;11.30;;;6.85;;
74656;SDS011;63185;45.642;13.764;2024-02-15T01:27:40;16.65;;;7.22;;
74656;SDS011;63185;45.642;13.764;2024-02-15T01:30:06;11.27;;;5.70;;
74656;SDS011;63185;45.642;13.764;2024-02-15T01:32:33;12.15;;;5.68;;
74656;SDS011;63185;45.642;13.764;2024-02-15T01:34:59;16.05;;;6.65;;
74656;SDS011;63185;45.642;13.764;2024-02-15T01:37:24;11.90;;;5.82;;
74656;SDS011;63185;45.642;13.764;2024-02-15T01:39:50;13.00;;;5.50;;
74656;SDS011;63185;45.642;13.764;2024-02-15T01:42:16;11.07;;;5.60;;
74656;SDS011;63185;45.642;13.764;2024-02-15T01:44:42;12.48;;;5.43;;
74656;SDS011;63185;45.642;13.764;2024-02-15T01:47:12;10.45;;;5.20;;
74656;SDS011;63185;45.642;13.764;2024-02-15T01:49:38;10.13;;;5.55;;
74656;SDS011;63185;45.642;13.764;2024-02-15T01:52:06;12.55;;;5.30;;
74656;SDS011;63185;45.642;13.764;2024-02-15T01:54:35;10.57;;;5.63;;
74656;SDS011;63185;45.642;13.764;2024-02-15T01:57:04;13.45;;;6.28;;
74656;SDS011;63185;45.642;13.764;2024-02-15T01:59:30;15.63;;;6.10;;
74656;SDS011;63185;45.642;13.764;2024-02-15T02:01:56;11.52;;;5.80;;
74656;SDS011;63185;45.642;13.764;2024-02-15T02:04:22;14.38;;;6.15;;
74656;SDS011;63185;45.642;13.764;2024-02-15T02:06:48;8.75;;;5.60;;
74656;SDS011;63185;45.642;13.764;2024-02-15T02:09:14;11.40;;;6.18;;
74656;SDS011;63185;45.642;13.764;2024-02-15T02:11:41;11.10;;;6.07;;
74656;SDS011;63185;45.642;13.764;2024-02-15T02:14:10;11.63;;;6.53;;
74656;SDS011;63185;45.642;13.764;2024-02-15T02:16:36;15.43;;;6.70;;
74656;SDS011;63185;45.642;13.764;2024-02-15T02:19:04;13.43;;;6.32;;
74656;SDS011;63185;45.642;13.764;2024-02-15T02:21:34;12.68;;;6.65;;
74656;SDS011;63185;45.642;13.764;2024-02-15T02:24:02;11.40;;;7.10;;
74656;SDS011;63185;45.642;13.764;2024-02-15T02:26:33;11.05;;;6.53;;
74656;SDS011;63185;45.642;13.764;2024-02-15T02:29:02;12.13;;;7.00;;
74656;SDS011;63185;45.642;13.764;2024-02-15T02:31:32;14.82;;;6.25;;
74656;SDS011;63185;45.642;13.764;2024-02-15T02:34:01;9.70;;;5.97;;
74656;SDS011;63185;45.642;13.764;2024-02-15T02:36:27;15.13;;;6.05;;
74656;SDS011;63185;45.642;13.764;2024-02-15T02:38:54;11.55;;;6.10;;
74656;SDS011;63185;45.642;13.764;2024-02-15T02:41:20;10.13;;;5.35;;
74656;SDS011;63185;45.642;13.764;2024-02-15T02:43:46;9.35;;;5.15;;
74656;SDS011;63185;45.642;13.764;2024-02-15T02:46:12;9.25;;;5.30;;
74656;SDS011;63185;45.642;13.764;2024-02-15T02:48:38;12.02;;;5.43;;
74656;SDS011;63185;45.642;13.764;2024-02-15T02:51:04;9.90;;;5.80;;
74656;SDS011;63185;45.642;13.764;2024-02-15T02:53:31;10.30;;;5.40;;
74656;SDS011;63185;45.642;13.764;2024-02-15T02:55:57;10.93;;;5.85;;
74656;SDS011;63185;45.642;13.764;2024-02-15T02:58:23;11.60;;;5.55;;
74656;SDS011;63185;45.642;13.764;2024-02-15T03:00:49;11.82;;;5.80;;
74656;SDS011;63185;45.642;13.764;2024-02-15T03:03:15;13.00;;;5.88;;
74656;SDS011;63185;45.642;13.764;2024-02-15T03:05:41;11.38;;;5.65;;
74656;SDS011;63185;45.642;13.764;2024-02-15T03:08:10;13.35;;;6.03;;
74656;SDS011;63185;45.642;13.764;2024-02-15T03:10:38;11.30;;;5.93;;
74656;SDS011;63185;45.642;13.764;2024-02-15T03:13:04;9.55;;;5.35;;
74656;SDS011;63185;45.642;13.764;2024-02-15T03:15:30;11.80;;;5.30;;
74656;SDS011;63185;45.642;13.764;2024-02-15T03:17:58;11.43;;;5.05;;
74656;SDS011;63185;45.642;13.764;2024-02-15T03:20:24;8.65;;;4.88;;
74656;SDS011;63185;45.642;13.764;2024-02-15T03:22:53;12.02;;;5.43;;
74656;SDS011;63185;45.642;13.764;2024-02-15T03:25:20;10.60;;;4.68;;
74656;SDS011;63185;45.642;13.764;2024-02-15T03:27:49;10.98;;;4.72;;
74656;SDS011;63185;45.642;13.764;2024-02-15T03:32:47;10.30;;;4.47;;
74656;SDS011;63185;45.642;13.764;2024-02-15T03:35:16;7.78;;;4.53;;
74656;SDS011;63185;45.642;13.764;2024-02-15T03:37:43;9.35;;;4.00;;
74656;SDS011;63185;45.642;13.764;2024-02-15T03:40:10;11.63;;;4.28;;
74656;SDS011;63185;45.642;13.764;2024-02-15T03:42:36;9.10;;;4.80;;
74656;SDS011;63185;45.642;13.764;2024-02-15T03:45:04;9.80;;;5.57;;
74656;SDS011;63185;45.642;13.764;2024-02-15T03:47:33;11.55;;;5.65;;
74656;SDS011;63185;45.642;13.764;2024-02-15T03:50:03;13.18;;;6.53;;
74656;SDS011;63185;45.642;13.764;2024-02-15T03:52:30;14.75;;;6.78;;
74656;SDS011;63185;45.642;13.764;2024-02-15T03:54:56;11.82;;;6.00;;
74656;SDS011;63185;45.642;13.764;2024-02-15T03:57:27;13.02;;;6.43;;
74656;SDS011;63185;45.642;13.764;2024-02-15T03:59:53;11.88;;;6.03;;
74656;SDS011;63185;45.642;13.764;2024-02-15T04:02:21;13.25;;;6.20;;
74656;SDS011;63185;45.642;13.764;2024-02-15T04:04:48;10.88;;;5.90;;
74656;SDS011;63185;45.642;13.764;2024-02-15T04:07:17;11.05;;;6.00;;
74656;SDS011;63185;45.642;13.764;2024-02-15T04:09:43;9.23;;;6.15;;
74656;SDS011;63185;45.642;13.764;2024-02-15T04:12:10;11.02;;;5.85;;
74656;SDS011;63185;45.642;13.764;2024-02-15T04:14:36;12.43;;;6.10;;
74656;SDS011;63185;45.642;13.764;2024-02-15T04:17:05;7.80;;;4.88;;
74656;SDS011;63185;45.642;13.764;2024-02-15T04:19:31;9.25;;;6.30;;
74656;SDS011;63185;45.642;13.764;2024-02-15T04:21:57;9.95;;;5.80;;
74656;SDS011;63185;45.642;13.764;2024-02-15T04:24:24;14.25;;;6.43;;
74656;SDS011;63185;45.642;13.764;2024-02-15T04:26:50;10.38;;;5.82;;
74656;SDS011;63185;45.642;13.764;2024-02-15T04:29:16;10.27;;;6.05;;
74656;SDS011;63185;45.642;13.764;2024-02-15T04:31:45;10.88;;;5.95;;
74656;SDS011;63185;45.642;13.764;2024-02-15T04:34:17;10.30;;;6.18;;
74656;SDS011;63185;45.642;13.764;2024-02-15T04:36:46;12.07;;;6.35;;
74656;SDS011;63185;45.642;13.764;2024-02-15T04:39:18;13.05;;;6.40;;
74656;SDS011;63185;45.642;13.764;2024-02-15T04:41:52;12.90;;;6.35;;
74656;SDS011;63185;45.642;13.764;2024-02-15T04:44:18;14.25;;;6.07;;
74656;SDS011;63185;45.642;13.764;2024-02-15T04:46:48;15.15;;;6.75;;
74656;SDS011;63185;45.642;13.764;2024-02-15T04:49:16;9.65;;;5.80;;
74656;SDS011;63185;45.642;13.764;2024-02-15T04:51:42;11.13;;;6.13;;
74656;SDS011;63185;45.642;13.764;2024-02-15T04:54:09;9.65;;;6.68;;
74656;SDS011;63185;45.642;13.764;2024-02-15T04:56:38;12.65;;;7.07;;
74656;SDS011;63185;45.642;13.764;2024-02-15T04:59:04;11.32;;;6.78;;
74656;SDS011;63185;45.642;13.764;2024-02-15T05:01:33;11.73;;;7.70;;
74656;SDS011;63185;45.642;13.764;2024-02-15T05:04:00;13.57;;;7.30;;
74656;SDS011;63185;45.642;13.764;2024-02-15T05:06:31;12.65;;;7.78;;
74656;SDS011;63185;45.642;13.764;2024-02-15T05:08:57;13.05;;;7.60;;
74656;SDS011;63185;45.642;13.764;2024-02-15T05:11:25;14.80;;;7.50;;
74656;SDS011;63185;45.642;13.764;2024-02-15T05:13:51;12.93;;;7.60;;
74656;SDS011;63185;45.642;13.764;2024-02-15T05:16:17;12.20;;;7.70;;
74656;SDS011;63185;45.642;13.764;2024-02-15T05:18:43;13.35;;;7.97;;
74656;SDS011;63185;45.642;13.764;2024-02-15T05:21:10;14.43;;;8.10;;
74656;SDS011;63185;45.642;13.764;2024-02-15T05:23:36;15.73;;;8.52;;
74656;SDS011;63185;45.642;13.764;2024-02-15T05:26:05;16.83;;;8.30;;
74656;SDS011;63185;45.642;13.764;2024-02-15T05:28:31;15.90;;;7.60;;
74656;SDS011;63185;45.642;13.764;2024-02-15T05:33:44;14.40;;;7.93;;
74656;SDS011;63185;45.642;13.764;2024-02-15T05:36:13;10.37;;;7.37;;
74656;SDS011;63185;45.642;13.764;2024-02-15T05:38:40;12.73;;;7.00;;
74656;SDS011;63185;45.642;13.764;2024-02-15T05:41:06;15.55;;;7.75;;
74656;SDS011;63185;45.642;13.764;2024-02-15T05:43:35;12.70;;;7.57;;
74656;SDS011;63185;45.642;13.764;2024-02-15T05:46:02;14.03;;;7.17;;
74656;SDS011;63185;45.642;13.764;2024-02-15T05:48:28;12.98;;;7.45;;
74656;SDS011;63185;45.642;13.764;2024-02-15T05:50:55;12.07;;;6.78;;
74656;SDS011;63185;45.642;13.764;2024-02-15T05:53:22;13.68;;;6.82;;
74656;SDS011;63185;45.642;13.764;2024-02-15T05:55:48;12.45;;;7.07;;
74656;SDS011;63185;45.642;13.764;2024-02-15T05:58:14;13.00;;;7.28;;
74656;SDS011;63185;45.642;13.764;2024-02-15T06:00:40;14.10;;;6.70;;
74656;SDS011;63185;45.642;13.764;2024-02-15T06:03:06;12.15;;;6.72;;
74656;SDS011;63185;45.642;13.764;2024-02-15T06:05:34;15.10;;;7.47;;
74656;SDS011;63185;45.642;13.764;2024-02-15T06:08:00;11.77;;;6.75;;
74656;SDS011;63185;45.642;13.764;2024-02-15T06:10:26;14.07;;;7.38;;
74656;SDS011;63185;45.642;13.764;2024-02-15T06:12:52;13.93;;;7.18;;
74656;SDS011;63185;45.642;13.764;2024-02-15T06:15:17;13.20;;;6.72;;
74656;SDS011;63185;45.642;13.764;2024-02-15T06:17:44;15.90;;;7.55;;
74656;SDS011;63185;45.642;13.764;2024-02-15T06:20:11;12.25;;;7.18;;
74656;SDS011;63185;45.642;13.764;2024-02-15T06:22:42;14.18;;;7.63;;
74656;SDS011;63185;45.642;13.764;2024-02-15T06:25:11;15.00;;;7.47;;
74656;SDS011;63185;45.642;13.764;2024-02-15T06:27:38;12.88;;;6.90;;
74656;SDS011;63185;45.642;13.764;2024-02-15T06:30:11;9.68;;;4.68;;
74656;SDS011;63185;45.642;13.764;2024-02-15T06:32:56;15.15;;;6.95;;
74656;SDS011;63185;45.642;13.764;2024-02-15T06:35:41;11.43;;;7.15;;
74656;SDS011;63185;45.642;13.764;2024-02-15T06:38:26;11.38;;;7.38;;
74656;SDS011;63185;45.642;13.764;2024-02-15T06:41:10;11.40;;;7.15;;
74656;SDS011;63185;45.642;13.764;2024-02-15T06:43:35;15.30;;;7.40;;
74656;SDS011;63185;45.642;13.764;2024-02-15T06:46:02;12.80;;;6.53;;
74656;SDS011;63185;45.642;13.764;2024-02-15T06:48:31;12.20;;;6.47;;
74656;SDS011;63185;45.642;13.764;2024-02-15T06:50:56;12.77;;;7.13;;
74656;SDS011;63185;45.642;13.764;2024-02-15T06:53:23;12.25;;;6.80;;
74656;SDS011;63185;45.642;13.764;2024-02-15T06:55:49;13.57;;;6.80;;
74656;SDS011;63185;45.642;13.764;2024-02-15T06:58:15;14.95;;;6.38;;
74656;SDS011;63185;45.642;13.764;2024-02-15T07:00:42;11.82;;;6.68;;
74656;SDS011;63185;45.642;13.764;2024-02-15T07:03:09;15.32;;;6.57;;
74656;SDS011;63185;45.642;13.764;2024-02-15T07:05:36;14.55;;;5.60;;
74656;SDS011;63185;45.642;13.764;2024-02-15T07:08:03;12.63;;;6.28;;
74656;SDS011;63185;45.642;13.764;2024-02-15T07:10:30;14.43;;;6.28;;
74656;SDS011;63185;45.642;13.764;2024-02-15T07:12:56;14.45;;;5.75;;
74656;SDS011;63185;45.642;13.764;2024-02-15T07:15:22;11.18;;;5.25;;
74656;SDS011;63185;45.642;13.764;2024-02-15T07:17:48;10.18;;;5.20;;
74656;SDS011;63185;45.642;13.764;2024-02-15T07:20:14;15.77;;;5.22;;
74656;SDS011;63185;45.642;13.764;2024-02-15T07:22:42;8.10;;;4.68;;
74656;SDS011;63185;45.642;13.764;2024-02-15T07:25:10;11.38;;;4.85;;
74656;SDS011;63185;45.642;13.764;2024-02-15T07:27:36;10.35;;;4.82;;
74656;SDS011;63185;45.642;13.764;2024-02-15T07:30:02;15.93;;;5.35;;
74656;SDS011;63185;45.642;13.764;2024-02-15T07:32:29;10.23;;;4.97;;
74656;SDS011;63185;45.642;13.764;2024-02-15T07:34:56;12.77;;;6.47;;
74656;SDS011;63185;45.642;13.764;2024-02-15T07:37:22;11.60;;;6.43;;
74656;SDS011;63185;45.642;13.764;2024-02-15T07:39:51;15.77;;;6.82;;
74656;SDS011;63185;45.642;13.764;2024-02-15T07:42:17;12.73;;;6.35;;
74656;SDS011;63185;45.642;13.764;2024-02-15T07:44:43;10.57;;;7.30;;
74656;SDS011;63185;45.642;13.764;2024-02-15T07:47:09;14.93;;;7.30;;
74656;SDS011;63185;45.642;13.764;2024-02-15T07:49:38;14.70;;;7.77;;
74656;SDS011;63185;45.642;13.764;2024-02-15T07:52:03;17.70;;;8.55;;
74656;SDS011;63185;45.642;13.764;2024-02-15T07:54:30;16.33;;;9.90;;
74656;SDS011;63185;45.642;13.764;2024-02-15T07:56:58;18.20;;;9.15;;
74656;SDS011;63185;45.642;13.764;2024-02-15T07:59:24;16.48;;;8.73;;
74656;SDS011;63185;45.642;13.764;2024-02-15T08:01:49;17.52;;;8.43;;
74656;SDS011;63185;45.642;13.764;2024-02-15T08:04:16;16.92;;;9.63;;
74656;SDS011;63185;45.642;13.764;2024-02-15T08:06:49;16.90;;;9.70;;
74656;SDS011;63185;45.642;13.764;2024-02-15T08:09:18;17.48;;;9.75;;
74656;SDS011;63185;45.642;13.764;2024-02-15T08:11:46;21.33;;;10.73;;
74656;SDS011;63185;45.642;13.764;2024-02-15T08:14:14;24.40;;;12.10;;
74656;SDS011;63185;45.642;13.764;2024-02-15T08:16:40;23.08;;;11.90;;
74656;SDS011;63185;45.642;13.764;2024-02-15T08:19:06;21.95;;;13.80;;
74656;SDS011;63185;45.642;13.764;2024-02-15T08:21:32;20.35;;;13.68;;
74656;SDS011;63185;45.642;13.764;2024-02-15T08:24:00;26.60;;;15.18;;
74656;SDS011;63185;45.642;13.764;2024-02-15T08:26:39;24.08;;;14.13;;
74656;SDS011;63185;45.642;13.764;2024-02-15T08:29:06;20.05;;;12.48;;
74656;SDS011;63185;45.642;13.764;2024-02-15T08:31:32;23.33;;;13.25;;
74656;SDS011;63185;45.642;13.764;2024-02-15T08:34:01;21.77;;;13.00;;
74656;SDS011;63185;45.642;13.764;2024-02-15T08:38:56;18.77;;;12.00;;
74656;SDS011;63185;45.642;13.764;2024-02-15T08:41:21;20.02;;;11.95;;
74656;SDS011;63185;45.642;13.764;2024-02-15T08:46:17;17.63;;;11.52;;
74656;SDS011;63185;45.642;13.764;2024-02-15T08:48:43;23.70;;;12.40;;
74656;SDS011;63185;45.642;13.764;2024-02-15T08:51:09;18.15;;;11.50;;
74656;SDS011;63185;45.642;13.764;2024-02-15T08:53:35;17.13;;;11.02;;
74656;SDS011;63185;45.642;13.764;2024-02-15T08:56:02;20.17;;;11.60;;
74656;SDS011;63185;45.642;13.764;2024-02-15T08:58:28;17.10;;;11.10;;
74656;SDS011;63185;45.642;13.764;2024-02-15T09:00:55;16.20;;;10.82;;
74656;SDS011;63185;45.642;13.764;2024-02-15T09:03:21;19.42;;;11.52;;
74656;SDS011;63185;45.642;13.764;2024-02-15T09:05:47;16.13;;;10.65;;
74656;SDS011;63185;45.642;13.764;2024-02-15T09:08:13;14.63;;;10.27;;
74656;SDS011;63185;45.642;13.764;2024-02-15T09:10:40;13.73;;;9.70;;
74656;SDS011;63185;45.642;13.764;2024-02-15T09:13:07;16.42;;;10.40;;
74656;SDS011;63185;45.642;13.764;2024-02-15T09:15:33;15.68;;;10.43;;
74656;SDS011;63185;45.642;13.764;2024-02-15T09:18:00;16.38;;;9.98;;
74656;SDS011;63185;45.642;13.764;2024-02-15T09:20:26;16.75;;;10.23;;
74656;SDS011;63185;45.642;13.764;2024-02-15T09:22:54;17.92;;;10.82;;
74656;SDS011;63185;45.642;13.764;2024-02-15T09:25:22;18.40;;;12.15;;
74656;SDS011;63185;45.642;13.764;2024-02-15T09:27:48;19.20;;;12.73;;
74656;SDS011;63185;45.642;13.764;2024-02-15T09:30:15;18.58;;;11.95;;
74656;SDS011;63185;45.642;13.764;2024-02-15T09:32:41;19.85;;;12.65;;
74656;SDS011;63185;45.642;13.764;2024-02-15T09:35:08;19.95;;;11.95;;
74656;SDS011;63185;45.642;13.764;2024-02-15T09:37:37;21.20;;;12.90;;
74656;SDS011;63185;45.642;13.764;2024-02-15T09:40:07;20.98;;;11.98;;
74656;SDS011;63185;45.642;13.764;2024-02-15T09:42:37;17.30;;;11.82;;
74656;SDS011;63185;45.642;13.764;2024-02-15T09:45:05;19.30;;;11.95;;
74656;SDS011;63185;45.642;13.764;2024-02-15T09:47:34;19.35;;;12.27;;
74656;SDS011;63185;45.642;13.764;2024-02-15T09:50:12;19.55;;;12.55;;
74656;SDS011;63185;45.642;13.764;2024-02-15T09:55:17;22.10;;;11.05;;
74656;SDS011;63185;45.642;13.764;2024-02-15T09:57:44;21.67;;;11.60;;
74656;SDS011;63185;45.642;13.764;2024-02-15T10:00:11;32.65;;;11.93;;
74656;SDS011;63185;45.642;13.764;2024-02-15T10:02:46;24.50;;;13.25;;
74656;SDS011;63185;45.642;13.764;2024-02-15T10:05:13;156.43;;;18.27;;
74656;SDS011;63185;45.642;13.764;2024-02-15T10:07:39;29.83;;;15.65;;
74656;SDS011;63185;45.642;13.764;2024-02-15T10:10:15;23.40;;;14.05;;
74656;SDS011;63185;45.642;13.764;2024-02-15T10:12:42;68.53;;;14.95;;
74656;SDS011;63185;45.642;13.764;2024-02-15T10:15:08;19.63;;;12.40;;
74656;SDS011;63185;45.642;13.764;2024-02-15T10:17:35;18.35;;;10.90;;
74656;SDS011;63185;45.642;13.764;2024-02-15T10:20:04;19.00;;;11.90;;
74656;SDS011;63185;45.642;13.764;2024-02-15T10:22:31;18.45;;;12.93;;
74656;SDS011;63185;45.642;13.764;2024-02-15T10:25:12;19.63;;;11.80;;
74656;SDS011;63185;45.642;13.764;2024-02-15T10:27:41;18.48;;;11.40;;
74656;SDS011;63185;45.642;13.764;2024-02-15T10:32:45;17.23;;;10.80;;
74656;SDS011;63185;45.642;13.764;2024-02-15T10:35:19;17.35;;;11.98;;
74656;SDS011;63185;45.642;13.764;2024-02-15T10:37:46;17.13;;;11.82;;
74656;SDS011;63185;45.642;13.764;2024-02-15T10:40:19;19.83;;;12.13;;
74656;SDS011;63185;45.642;13.764;2024-02-15T10:42:48;20.15;;;10.90;;
74656;SDS011;63185;45.642;13.764;2024-02-15T10:45:21;18.08;;;10.48;;
74656;SDS011;63185;45.642;13.764;2024-02-15T10:47:47;15.15;;;9.68;;
74656;SDS011;63185;45.642;13.764;2024-02-15T10:50:13;12.52;;;9.23;;
74656;SDS011;63185;45.642;13.764;2024-02-15T10:52:55;14.60;;;9.05;;
74656;SDS011;63185;45.642;13.764;2024-02-15T10:55:35;14.43;;;8.98;;
74656;SDS011;63185;45.642;13.764;2024-02-15T10:58:03;14.15;;;9.10;;
74656;SDS011;63185;45.642;13.764;2024-02-15T11:00:34;11.75;;;8.48;;
74656;SDS011;63185;45.642;13.764;2024-02-15T11:03:05;12.68;;;8.32;;
74656;SDS011;63185;45.642;13.764;2024-02-15T11:05:36;11.32;;;8.38;;
74656;SDS011;63185;45.642;13.764;2024-02-15T11:08:07;13.85;;;9.27;;
74656;SDS011;63185;45.642;13.764;2024-02-15T11:10:34;12.70;;;9.43;;
74656;SDS011;63185;45.642;13.764;2024-02-15T11:13:01;13.75;;;9.40;;
74656;SDS011;63185;45.642;13.764;2024-02-15T11:15:49;13.07;;;9.63;;
74656;SDS011;63185;45.642;13.764;2024-02-15T11:23:45;16.67;;;10.50;;
74656;SDS011;63185;45.642;13.764;2024-02-15T11:29:25;15.10;;;10.20;;
74656;SDS011;63185;45.642;13.764;2024-02-15T11:32:37;16.92;;;10.95;;
74656;SDS011;63185;45.642;13.764;2024-02-15T11:35:16;15.88;;;10.55;;
74656;SDS011;63185;45.642;13.764;2024-02-15T11:40:21;20.17;;;12.02;;
74656;SDS011;63185;45.642;13.764;2024-02-15T11:45:24;16.85;;;11.18;;
74656;SDS011;63185;45.642;13.764;2024-02-15T11:47:59;15.38;;;10.75;;
74656;SDS011;63185;45.642;13.764;2024-02-15T11:50:27;14.77;;;9.52;;
74656;SDS011;63185;45.642;13.764;2024-02-15T11:52:55;15.32;;;10.45;;
74656;SDS011;63185;45.642;13.764;2024-02-15T11:55:34;17.17;;;11.07;;
74656;SDS011;63185;45.642;13.764;2024-02-15T11:58:01;17.30;;;11.35;;
74656;SDS011;63185;45.642;13.764;2024-02-15T12:00:30;17.48;;;10.15;;
74656;SDS011;63185;45.642;13.764;2024-02-15T12:03:16;18.05;;;11.05;;
74656;SDS011;63185;45.642;13.764;2024-02-15T12:06:01;18.75;;;11.60;;
74656;SDS011;63185;45.642;13.764;2024-02-15T12:08:46;15.15;;;11.10;;
74656;SDS011;63185;45.642;13.764;2024-02-15T12:11:31;20.50;;;11.88;;
74656;SDS011;63185;45.642;13.764;2024-02-15T12:14:15;19.65;;;11.90;;
74656;SDS011;63185;45.642;13.764;2024-02-15T12:19:48;16.10;;;10.05;;
74656;SDS011;63185;45.642;13.764;2024-02-15T12:22:19;16.55;;;10.18;;
74656;SDS011;63185;45.642;13.764;2024-02-15T12:24:53;16.38;;;10.50;;
74656;SDS011;63185;45.642;13.764;2024-02-15T12:27:20;13.18;;;8.75;;
74656;SDS011;63185;45.642;13.764;2024-02-15T12:29:46;15.35;;;9.70;;
74656;SDS011;63185;45.642;13.764;2024-02-15T12:32:25;16.77;;;10.73;;
74656;SDS011;63185;45.642;13.764;2024-02-15T12:34:52;16.27;;;9.68;;
74656;SDS011;63185;45.642;13.764;2024-02-15T12:37:19;15.85;;;10.02;;
74656;SDS011;63185;45.642;13.764;2024-02-15T12:39:46;15.90;;;10.13;;
74656;SDS011;63185;45.642;13.764;2024-02-15T12:42:15;17.85;;;10.90;;
74656;SDS011;63185;45.642;13.764;2024-02-15T12:44:48;15.88;;;10.77;;
74656;SDS011;63185;45.642;13.764;2024-02-15T12:47:17;16.20;;;10.65;;
74656;SDS011;63185;45.642;13.764;2024-02-15T12:49:49;17.70;;;11.18;;
74656;SDS011;63185;45.642;13.764;2024-02-15T12:55:10;17.70;;;11.32;;
74656;SDS011;63185;45.642;13.764;2024-02-15T12:57:40;15.52;;;10.63;;
74656;SDS011;63185;45.642;13.764;2024-02-15T13:00:08;15.95;;;10.32;;
74656;SDS011;63185;45.642;13.764;2024-02-15T13:02:43;14.25;;;9.88;;
74656;SDS011;63185;45.642;13.764;2024-02-15T13:05:16;15.68;;;10.15;;
74656;SDS011;63185;45.642;13.764;2024-02-15T13:07:47;15.15;;;9.95;;
74656;SDS011;63185;45.642;13.764;2024-02-15T13:10:13;16.25;;;9.85;;
74656;SDS011;63185;45.642;13.764;2024-02-15T13:12:42;15.25;;;9.77;;
74656;SDS011;63185;45.642;13.764;2024-02-15T13:17:45;14.10;;;8.98;;
74656;SDS011;63185;45.642;13.764;2024-02-15T13:20:14;15.23;;;10.05;;
74656;SDS011;63185;45.642;13.764;2024-02-15T13:22:42;15.15;;;9.63;;
74656;SDS011;63185;45.642;13.764;2024-02-15T13:25:09;13.73;;;9.25;;
74656;SDS011;63185;45.642;13.764;2024-02-15T13:27:35;15.70;;;10.00;;
74656;SDS011;63185;45.642;13.764;2024-02-15T13:30:05;18.75;;;8.65;;
74656;SDS011;63185;45.642;13.764;2024-02-15T13:32:37;15.70;;;9.18;;
74656;SDS011;63185;45.642;13.764;2024-02-15T13:35:10;13.57;;;9.25;;
74656;SDS011;63185;45.642;13.764;2024-02-15T13:37:48;14.38;;;8.30;;
74656;SDS011;63185;45.642;13.764;2024-02-15T13:40:17;12.13;;;7.55;;
74656;SDS011;63185;45.642;13.764;2024-02-15T13:42:45;11.43;;;7.57;;
74656;SDS011;63185;45.642;13.764;2024-02-15T13:45:21;16.48;;;7.88;;
74656;SDS011;63185;45.642;13.764;2024-02-15T13:47:48;13.18;;;7.20;;
74656;SDS011;63185;45.642;13.764;2024-02-15T13:50:21;13.90;;;7.28;;
74656;SDS011;63185;45.642;13.764;2024-02-15T13:52:48;12.82;;;7.32;;
74656;SDS011;63185;45.642;13.764;2024-02-15T13:55:15;11.70;;;7.15;;
74656;SDS011;63185;45.642;13.764;2024-02-15T13:57:43;12.27;;;6.88;;
74656;SDS011;63185;45.642;13.764;2024-02-15T14:00:10;12.85;;;7.10;;
74656;SDS011;63185;45.642;13.764;2024-02-15T14:02:56;13.35;;;7.32;;
74656;SDS011;63185;45.642;13.764;2024-02-15T14:05:24;13.35;;;7.65;;
74656;SDS011;63185;45.642;13.764;2024-02-15T14:07:54;14.98;;;7.40;;
74656;SDS011;63185;45.642;13.764;2024-02-15T14:10:23;13.85;;;8.13;;
74656;SDS011;63185;45.642;13.764;2024-02-15T14:12:51;13.60;;;8.18;;
74656;SDS011;63185;45.642;13.764;2024-02-15T14:15:20;13.03;;;8.13;;
74656;SDS011;63185;45.642;13.764;2024-02-15T14:17:46;14.02;;;8.27;;
74656;SDS011;63185;45.642;13.764;2024-02-15T14:20:12;16.13;;;8.88;;
74656;SDS011;63185;45.642;13.764;2024-02-15T14:22:43;14.93;;;8.52;;
74656;SDS011;63185;45.642;13.764;2024-02-15T14:25:09;13.55;;;8.40;;
74656;SDS011;63185;45.642;13.764;2024-02-15T14:27:37;17.10;;;8.82;;
74656;SDS011;63185;45.642;13.764;2024-02-15T14:30:04;13.90;;;8.70;;
74656;SDS011;63185;45.642;13.764;2024-02-15T14:32:49;16.80;;;8.85;;
74656;SDS011;63185;45.642;13.764;2024-02-15T14:40:40;10.68;;;7.75;;
74656;SDS011;63185;45.642;13.764;2024-02-15T14:43:19;12.75;;;8.05;;
74656;SDS011;63185;45.642;13.764;2024-02-15T14:45:46;14.20;;;8.07;;
74656;SDS011;63185;45.642;13.764;2024-02-15T14:48:12;12.23;;;7.25;;
74656;SDS011;63185;45.642;13.764;2024-02-15T14:50:39;11.13;;;6.85;;
74656;SDS011;63185;45.642;13.764;2024-02-15T14:53:05;13.80;;;6.30;;
74656;SDS011;63185;45.642;13.764;2024-02-15T14:55:34;11.65;;;6.40;;
74656;SDS011;63185;45.642;13.764;2024-02-15T14:58:04;9.05;;;6.32;;
74656;SDS011;63185;45.642;13.764;2024-02-15T15:00:33;11.38;;;6.70;;
74656;SDS011;63185;45.642;13.764;2024-02-15T15:03:00;9.90;;;6.45;;
74656;SDS011;63185;45.642;13.764;2024-02-15T15:05:27;9.73;;;4.93;;
74656;SDS011;63185;45.642;13.764;2024-02-15T15:08:12;9.93;;;5.70;;